createdAt,value
2018-05-13T00:01:06.794Z,18.64
2018-05-13T00:04:19.646Z,18.47
2018-05-13T00:07:24.712Z,18.55
2018-05-13T00:10:27.452Z,18.48
2018-05-13T00:13:34.487Z,18.46
2018-05-13T00:16:37.374Z,18.52
2018-05-13T00:19:39.998Z,18.60
2018-05-13T00:22:42.620Z,18.53
2018-05-13T00:25:45.276Z,18.58
2018-05-13T00:28:47.939Z,18.64
2018-05-13T00:31:50.622Z,18.62
2018-05-13T00:34:53.194Z,18.36
2018-05-13T00:37:55.780Z,18.49
2018-05-13T00:40:58.362Z,18.57
2018-05-13T00:44:01.558Z,18.45
2018-05-13T00:47:04.109Z,18.38
2018-05-13T00:50:08.501Z,18.31
2018-05-13T00:53:11.148Z,18.21
2018-05-13T00:56:13.900Z,18.24
2018-05-13T00:59:16.619Z,18.34
2018-05-13T01:02:19.228Z,18.38
2018-05-13T01:05:21.886Z,18.32
2018-05-13T01:08:24.470Z,18.16
2018-05-13T01:11:27.102Z,18.18
2018-05-13T01:14:29.668Z,18.09
2018-05-13T01:17:32.283Z,18.05
2018-05-13T01:20:34.832Z,18.02
2018-05-13T01:23:37.389Z,18.00
2018-05-13T01:26:39.959Z,18.05
2018-05-13T01:29:42.540Z,18.21
2018-05-13T01:32:45.069Z,18.24
2018-05-13T01:35:47.622Z,18.25
2018-05-13T01:38:50.190Z,18.34
2018-05-13T01:41:52.868Z,18.13
2018-05-13T01:44:55.415Z,18.13
2018-05-13T01:47:57.976Z,18.12
2018-05-13T01:51:00.537Z,18.02
2018-05-13T01:54:03.096Z,17.98
2018-05-13T01:57:05.667Z,18.12
2018-05-13T02:00:09.168Z,18.12
2018-05-13T02:03:11.786Z,18.30
2018-05-13T02:06:14.400Z,18.36
2018-05-13T02:09:20.002Z,18.27
2018-05-13T02:12:22.687Z,18.33
2018-05-13T02:15:28.106Z,18.24
2018-05-13T02:18:30.665Z,18.37
2018-05-13T02:21:33.419Z,18.24
2018-05-13T02:24:45.354Z,18.36
2018-05-13T02:27:48.637Z,18.26
2018-05-13T02:30:53.215Z,18.31
2018-05-13T02:33:55.772Z,18.25
2018-05-13T02:36:59.191Z,18.23
2018-05-13T02:40:01.753Z,18.16
2018-05-13T02:43:04.761Z,18.20
2018-05-13T02:46:08.570Z,18.32
2018-05-13T02:49:11.161Z,18.24
2018-05-13T02:52:14.803Z,18.26
2018-05-13T02:55:17.555Z,18.26
2018-05-13T02:58:21.339Z,18.18
2018-05-13T03:01:24.824Z,18.22
2018-05-13T03:04:28.468Z,18.26
2018-05-13T03:07:31.109Z,18.16
2018-05-13T03:10:33.688Z,18.23
2018-05-13T03:13:36.285Z,18.23
2018-05-13T03:16:38.965Z,18.32
2018-05-13T03:19:41.538Z,18.33
2018-05-13T03:22:44.963Z,18.36
2018-05-13T03:25:47.649Z,18.28
2018-05-13T03:28:50.581Z,18.21
2018-05-13T03:31:53.142Z,18.23
2018-05-13T03:34:59.591Z,18.29
2018-05-13T03:38:02.162Z,18.34
2018-05-13T03:41:04.726Z,18.17
2018-05-13T03:44:07.270Z,18.09
2018-05-13T03:47:09.926Z,18.16
2018-05-13T03:50:12.431Z,18.10
2018-05-13T03:53:14.987Z,18.13
2018-05-13T03:56:17.557Z,18.33
2018-05-13T03:59:20.117Z,18.29
2018-05-13T04:02:22.720Z,18.22
2018-05-13T04:05:25.781Z,18.43
2018-05-13T04:08:48.847Z,18.37
2018-05-13T04:12:03.092Z,18.33
2018-05-13T04:15:17.350Z,18.27
2018-05-13T04:18:20.048Z,18.36
2018-05-13T04:21:22.605Z,18.40
2018-05-13T04:24:25.185Z,18.36
2018-05-13T04:27:27.754Z,18.15
2018-05-13T04:30:31.305Z,18.14
2018-05-13T04:33:33.836Z,18.23
2018-05-13T04:36:36.520Z,18.20
2018-05-13T04:39:39.089Z,18.31
2018-05-13T04:42:41.729Z,18.31
2018-05-13T04:45:44.290Z,18.24
2018-05-13T04:48:46.937Z,18.30
2018-05-13T04:51:49.509Z,18.20
2018-05-13T04:54:52.145Z,18.13
2018-05-13T04:57:54.838Z,18.12
2018-05-13T05:00:57.418Z,18.15
2018-05-13T05:03:59.978Z,18.26
2018-05-13T05:07:02.512Z,18.33
2018-05-13T05:10:05.150Z,18.20
2018-05-13T05:13:07.678Z,18.18
2018-05-13T05:16:10.174Z,18.28
2018-05-13T05:19:12.701Z,18.18
2018-05-13T05:22:15.277Z,18.26
2018-05-13T05:25:17.790Z,18.39
2018-05-13T05:28:20.414Z,18.43
2018-05-13T05:31:22.914Z,18.46
2018-05-13T05:34:25.471Z,18.60
2018-05-13T05:37:28.030Z,18.62
2018-05-13T05:40:30.529Z,18.51
2018-05-13T05:43:33.163Z,18.65
2018-05-13T05:46:35.707Z,18.73
2018-05-13T05:49:38.278Z,18.74
2018-05-13T05:52:40.876Z,18.82
2018-05-13T05:55:43.445Z,18.86
2018-05-13T05:58:46.995Z,18.76
2018-05-13T06:05:32.953Z,18.93
2018-05-13T06:08:36.875Z,18.99
2018-05-13T06:11:41.174Z,19.00
2018-05-13T09:40:36.380Z,26.47
2018-05-13T09:43:51.510Z,26.58
2018-05-13T09:46:54.097Z,26.74
2018-05-13T10:47:41.705Z,28.77
2018-05-13T10:50:49.485Z,28.50
2018-05-13T10:54:23.524Z,28.72
2018-05-13T11:06:42.039Z,28.83
2018-05-13T11:10:00.711Z,29.05
2018-05-13T11:13:03.387Z,28.96
2018-05-13T11:16:28.662Z,28.87
2018-05-13T11:30:23.339Z,29.48
2018-05-13T11:33:34.030Z,29.35
2018-05-13T11:40:17.014Z,29.37
2018-05-13T11:46:49.893Z,29.51
2018-05-13T11:50:08.972Z,29.59
2018-05-13T11:59:47.642Z,29.64
2018-05-13T12:03:02.465Z,29.48
2018-05-13T12:06:09.477Z,29.56
2018-05-13T12:09:52.294Z,29.71
2018-05-13T12:13:05.750Z,29.49
2018-05-13T12:16:09.813Z,29.44
2018-05-13T12:22:27.364Z,29.68
2018-05-13T12:34:32.395Z,29.82
2018-05-13T12:37:43.917Z,29.43
2018-05-13T12:41:01.026Z,29.66
2018-05-13T12:44:05.777Z,29.87
2018-05-13T12:47:09.654Z,30.02
2018-05-13T12:50:22.126Z,29.85
2018-05-13T12:54:05.004Z,29.92
2018-05-13T12:57:22.580Z,29.85
2018-05-13T13:03:32.119Z,30.05
2018-05-13T13:06:51.270Z,29.89
2018-05-13T13:10:08.814Z,29.74
2018-05-13T13:13:15.346Z,29.80
2018-05-13T13:16:26.956Z,29.66
2018-05-13T13:22:54.487Z,29.92
2018-05-13T13:26:03.719Z,30.01
2018-05-13T13:29:07.499Z,29.88
2018-05-13T13:32:19.045Z,29.90
2018-05-13T13:35:25.105Z,29.92
2018-05-13T13:38:31.672Z,29.95
2018-05-13T13:41:35.817Z,29.90
2018-05-13T13:44:39.138Z,29.85
2018-05-13T13:47:43.051Z,29.82
2018-05-13T13:50:45.770Z,30.01
2018-05-13T13:53:49.074Z,29.80
2018-05-13T13:56:51.866Z,29.66
2018-05-13T14:00:05.222Z,29.92
2018-05-13T14:03:12.915Z,29.78
2018-05-13T14:06:18.519Z,29.62
2018-05-13T14:09:21.385Z,29.65
2018-05-13T14:12:43.465Z,29.62
2018-05-13T14:15:47.239Z,29.18
2018-05-13T14:18:51.615Z,29.40
2018-05-13T14:21:58.341Z,29.46
2018-05-13T14:25:05.989Z,29.51
2018-05-13T14:28:16.457Z,29.24
2018-05-13T14:31:25.119Z,29.37
2018-05-13T14:34:29.194Z,29.24
2018-05-13T14:40:53.655Z,29.38
2018-05-13T14:47:26.981Z,29.06
2018-05-13T14:54:34.754Z,28.98
2018-05-13T14:57:58.531Z,29.00
2018-05-13T15:01:24.814Z,29.02
2018-05-13T15:08:15.377Z,28.79
2018-05-13T15:11:19.816Z,28.78
2018-05-13T15:17:51.705Z,28.79
2018-05-13T15:20:54.475Z,28.70
2018-05-13T15:23:58.391Z,28.39
2018-05-13T15:27:00.924Z,28.31
2018-05-13T15:30:03.475Z,28.16
2018-05-13T15:33:06.823Z,28.15
2018-05-13T15:36:09.378Z,28.08
2018-05-13T15:39:11.893Z,27.80
2018-05-13T15:42:14.469Z,27.86
2018-05-13T15:45:17.073Z,27.78
2018-05-13T15:48:21.327Z,27.79
2018-05-13T15:51:23.881Z,27.80
2018-05-13T15:54:26.405Z,27.57
2018-05-13T15:57:28.997Z,27.51
2018-05-13T16:00:31.599Z,27.49
2018-05-13T16:03:34.170Z,27.46
2018-05-13T16:06:36.774Z,27.41
2018-05-13T16:09:39.314Z,27.51
2018-05-13T16:12:41.847Z,27.28
2018-05-13T16:15:44.429Z,27.29
2018-05-13T16:18:46.956Z,27.13
2018-05-13T16:21:49.485Z,27.05
2018-05-13T16:24:52.036Z,26.99
2018-05-13T16:27:54.551Z,26.87
2018-05-13T16:30:57.196Z,26.93
2018-05-13T16:33:59.940Z,26.70
2018-05-13T16:37:02.467Z,26.77
2018-05-13T16:40:05.173Z,26.67
2018-05-13T16:43:07.722Z,26.51
2018-05-13T16:46:10.304Z,26.39
2018-05-13T16:49:12.858Z,26.23
2018-05-13T16:52:15.400Z,26.18
2018-05-13T16:55:17.957Z,26.13
2018-05-13T16:58:20.522Z,26.15
2018-05-13T17:01:23.055Z,26.07
2018-05-13T17:04:25.923Z,26.05
2018-05-13T17:07:28.609Z,25.92
2018-05-13T17:10:31.297Z,25.93
2018-05-13T17:13:33.881Z,25.95
2018-05-13T17:16:36.545Z,25.95
2018-05-13T17:19:39.104Z,25.73
2018-05-13T17:22:41.792Z,25.84
2018-05-13T17:25:44.396Z,25.63
2018-05-13T17:28:47.140Z,25.70
2018-05-13T17:31:49.720Z,25.65
2018-05-13T17:34:52.369Z,25.60
2018-05-13T17:37:55.022Z,25.50
2018-05-13T17:40:58.790Z,25.48
2018-05-13T17:44:02.422Z,25.37
2018-05-13T17:47:05.098Z,25.33
2018-05-13T17:50:08.280Z,25.41
2018-05-13T17:53:14.348Z,25.20
2018-05-13T17:56:16.950Z,25.01
2018-05-13T17:59:19.754Z,25.03
2018-05-13T18:02:22.627Z,24.92
2018-05-13T18:05:25.788Z,24.88
2018-05-13T18:08:28.624Z,24.75
2018-05-13T18:11:31.276Z,24.76
2018-05-13T18:14:34.083Z,24.61
2018-05-13T18:17:36.998Z,24.56
2018-05-13T18:20:40.272Z,24.56
2018-05-13T18:23:43.855Z,24.41
2018-05-13T18:26:47.204Z,24.34
2018-05-13T18:29:52.224Z,24.28
2018-05-13T18:32:55.102Z,24.26
2018-05-13T18:35:58.274Z,24.09
2018-05-13T18:39:03.394Z,23.92
2018-05-13T18:45:41.674Z,23.77
2018-05-13T18:48:45.498Z,23.69
2018-05-13T18:51:53.180Z,23.54
2018-05-13T18:54:56.941Z,23.40
2018-05-13T19:19:33.605Z,22.83
2018-05-13T19:29:45.360Z,22.25
2018-05-13T19:32:49.165Z,22.24
2018-05-13T19:35:51.908Z,22.21
2018-05-13T19:38:55.075Z,22.05
2018-05-13T19:41:57.990Z,22.02
2018-05-13T19:45:09.738Z,21.90
2018-05-13T19:48:18.365Z,21.92
2018-05-13T19:55:01.717Z,21.77
2018-05-13T19:58:04.418Z,21.65
2018-05-13T20:01:07.270Z,21.57
2018-05-13T20:04:09.989Z,21.70
2018-05-13T20:07:13.596Z,21.45
2018-05-13T20:10:16.495Z,21.54
2018-05-13T20:16:33.056Z,21.41
2018-05-13T20:19:46.464Z,21.38
2018-05-13T20:23:02.071Z,21.26
2018-05-13T20:26:04.766Z,21.21
2018-05-13T20:29:07.436Z,21.08
2018-05-13T20:32:12.539Z,21.04
2018-05-13T20:35:15.299Z,21.04
2018-05-13T20:38:19.058Z,20.96
2018-05-13T20:41:21.780Z,20.90
2018-05-13T20:44:33.583Z,20.91
2018-05-13T20:47:36.353Z,20.91
2018-05-13T20:50:38.993Z,20.76
2018-05-13T20:53:51.007Z,20.75
2018-05-13T20:57:07.210Z,20.73
2018-05-13T21:00:10.276Z,20.74
2018-05-13T21:03:12.857Z,20.70
2018-05-13T21:06:19.120Z,20.59
2018-05-13T21:10:48.987Z,20.54
2018-05-13T21:13:51.626Z,20.71
2018-05-13T21:16:54.209Z,20.54
2018-05-13T21:19:56.831Z,20.47
2018-05-13T21:22:59.415Z,20.49
2018-05-13T21:33:42.965Z,20.24
2018-05-13T21:36:45.525Z,20.25
2018-05-13T21:39:48.183Z,20.00
2018-05-13T21:42:50.823Z,20.09
2018-05-13T21:45:53.460Z,20.01
2018-05-13T21:48:56.072Z,20.15
2018-05-13T21:51:58.759Z,20.05
2018-05-13T21:55:01.404Z,20.03
2018-05-13T21:58:04.788Z,20.04
2018-05-13T22:01:09.799Z,19.86
2018-05-13T22:04:13.129Z,19.85
2018-05-13T22:07:15.683Z,19.87
2018-05-13T22:10:18.423Z,19.77
2018-05-13T22:13:21.057Z,19.69
2018-05-13T22:16:23.727Z,19.60
2018-05-13T22:19:26.480Z,19.62
2018-05-13T22:22:30.236Z,19.78
2018-05-13T22:25:33.950Z,19.59
2018-05-13T22:28:38.673Z,19.45
2018-05-13T22:31:44.314Z,19.54
2018-05-13T22:34:48.356Z,19.64
2018-05-13T22:48:01.247Z,19.23
2018-05-13T22:51:04.812Z,19.27
2018-05-13T22:54:08.418Z,19.29
2018-05-13T22:57:18.792Z,19.23
2018-05-13T23:00:21.384Z,19.39
2018-05-13T23:03:25.432Z,19.18
2018-05-13T23:06:30.926Z,19.10
2018-05-13T23:09:33.682Z,19.10
2018-05-13T23:12:36.854Z,18.97
2018-05-13T23:15:39.460Z,19.17
2018-05-13T23:18:42.865Z,19.15
2018-05-13T23:21:45.659Z,18.91
2018-05-13T23:24:48.271Z,19.14
2018-05-13T23:27:55.703Z,19.05
2018-05-13T23:30:58.240Z,18.99
2018-05-13T23:34:00.792Z,19.11
2018-05-13T23:37:03.359Z,18.78
2018-05-13T23:40:05.931Z,18.84
2018-05-13T23:43:08.468Z,18.79
2018-05-13T23:46:11.028Z,18.73
2018-05-13T23:49:13.583Z,18.74
2018-05-13T23:52:16.158Z,18.66
2018-05-13T23:55:18.729Z,18.61
2018-05-13T23:58:21.280Z,18.52
